createdAt,value
2018-08-03T00:00:45.968Z,94.68
2018-08-03T00:01:46.146Z,94.58
2018-08-03T00:02:46.352Z,94.87
2018-08-03T00:03:46.538Z,94.68
2018-08-03T00:04:46.711Z,94.77
2018-08-03T00:05:46.917Z,94.87
2018-08-03T00:06:47.093Z,94.48
2018-08-03T00:07:47.276Z,95.06
2018-08-03T00:08:47.462Z,94.96
2018-08-03T00:09:47.646Z,94.68
2018-08-03T00:10:47.828Z,94.77
2018-08-03T00:11:48.020Z,94.96
2018-08-03T00:12:48.197Z,95.25
2018-08-03T00:13:48.388Z,95.54
2018-08-03T00:14:48.569Z,95.54
2018-08-03T00:15:48.763Z,95.16
2018-08-03T00:16:48.961Z,95.16
2018-08-03T00:17:49.137Z,95.64
2018-08-03T00:18:49.316Z,95.25
2018-08-03T00:19:49.508Z,95.54
2018-08-03T00:20:49.701Z,95.64
2018-08-03T00:21:49.892Z,95.35
2018-08-03T00:22:50.079Z,95.35
2018-08-03T00:23:50.268Z,95.54
2018-08-03T00:24:50.447Z,95.74
2018-08-03T00:25:50.630Z,95.25
2018-08-03T00:26:50.827Z,95.25
2018-08-03T00:27:51.045Z,95.25
2018-08-03T00:28:51.174Z,95.45
2018-08-03T00:31:34.078Z,95.40
2018-08-03T00:32:34.269Z,95.11
2018-08-03T00:33:34.461Z,95.69
2018-08-03T00:34:34.648Z,95.21
2018-08-03T00:35:34.836Z,95.31
2018-08-03T00:36:35.024Z,95.69
2018-08-03T00:37:35.204Z,95.59
2018-08-03T00:38:35.388Z,95.69
2018-08-03T00:39:35.558Z,95.59
2018-08-03T00:40:35.747Z,95.21
2018-08-03T00:41:35.920Z,95.21
2018-08-03T00:42:36.103Z,95.59
2018-08-03T00:43:36.267Z,95.98
2018-08-03T00:44:36.435Z,95.98
2018-08-03T00:45:36.639Z,96.08
2018-08-03T00:46:36.808Z,96.46
2018-08-03T00:47:36.993Z,96.08
2018-08-03T00:48:37.172Z,95.69
2018-08-03T00:49:37.367Z,96.36
2018-08-03T00:50:37.534Z,96.75
2018-08-03T00:51:37.742Z,96.56
2018-08-03T00:52:37.916Z,96.46
2018-08-03T00:53:38.124Z,96.36
2018-08-03T00:54:38.310Z,96.36
2018-08-03T00:55:38.535Z,96.46
2018-08-03T00:56:38.745Z,96.56
2018-08-03T00:57:38.925Z,96.56
2018-08-03T00:58:39.120Z,96.56
2018-08-03T00:59:39.295Z,97.19
2018-08-03T01:00:39.484Z,96.70
2018-08-03T01:01:39.660Z,97.38
2018-08-03T01:02:39.831Z,97.57
2018-08-03T01:03:40.039Z,97.47
2018-08-03T01:04:40.226Z,98.05
2018-08-03T01:05:40.401Z,97.67
2018-08-03T01:06:40.589Z,98.05
2018-08-03T01:07:40.786Z,97.09
2018-08-03T01:08:40.972Z,97.09
2018-08-03T01:09:41.154Z,97.38
2018-08-03T01:10:41.324Z,97.38
2018-08-03T01:11:41.513Z,97.38
2018-08-03T01:12:41.705Z,97.47
2018-08-03T01:13:41.886Z,97.38
2018-08-03T01:14:42.084Z,97.47
2018-08-03T01:15:42.249Z,97.96
2018-08-03T01:16:42.419Z,97.86
2018-08-03T01:17:42.621Z,98.05
2018-08-03T01:18:42.808Z,97.86
2018-08-03T01:19:42.990Z,97.96
2018-08-03T01:20:43.181Z,98.05
2018-08-03T01:21:43.361Z,97.86
2018-08-03T01:22:43.562Z,97.77
2018-08-03T01:23:43.751Z,97.86
2018-08-03T01:24:43.944Z,97.91
2018-08-03T01:25:44.130Z,98.15
2018-08-03T01:26:44.313Z,98.34
2018-08-03T01:27:44.523Z,97.67
2018-08-03T01:28:44.686Z,98.10
2018-08-03T01:29:44.871Z,98.10
2018-08-03T01:30:45.057Z,98.58
2018-08-03T01:31:45.244Z,98.39
2018-08-03T01:32:45.427Z,98.49
2018-08-03T01:33:45.609Z,98.39
2018-08-03T01:34:45.794Z,98.39
2018-08-03T01:35:45.992Z,98.58
2018-08-03T01:36:46.181Z,98.97
2018-08-03T01:37:46.418Z,98.97
2018-08-03T01:38:46.539Z,98.87
2018-08-03T01:39:46.721Z,98.68
2018-08-03T01:40:46.901Z,98.77
2018-08-03T01:41:47.095Z,99.16
2018-08-03T01:42:47.282Z,98.77
2018-08-03T01:43:47.472Z,98.68
2018-08-03T01:44:47.670Z,99.26
2018-08-03T01:45:47.877Z,98.87
2018-08-03T01:46:48.050Z,98.87
2018-08-03T01:47:48.234Z,98.87
2018-08-03T01:48:48.464Z,98.97
2018-08-03T01:49:48.619Z,99.16
2018-08-03T01:50:48.813Z,98.77
2018-08-03T01:51:48.991Z,99.35
2018-08-03T01:52:49.183Z,99.16
2018-08-03T01:53:49.390Z,99.07
2018-08-03T01:54:49.578Z,98.87
2018-08-03T01:55:49.747Z,99.07
2018-08-03T01:58:32.639Z,99.16
2018-08-03T01:59:32.833Z,98.87
2018-08-03T02:00:33.019Z,99.45
2018-08-03T02:01:33.204Z,99.35
2018-08-03T02:02:33.391Z,99.45
2018-08-03T02:03:33.580Z,98.77
2018-08-03T02:04:33.766Z,99.16
2018-08-03T02:05:33.939Z,99.74
2018-08-03T02:06:34.139Z,99.16
2018-08-03T02:07:34.521Z,99.26
2018-08-03T02:08:34.553Z,99.07
2018-08-03T02:09:34.755Z,98.87
2018-08-03T02:10:34.935Z,99.45
2018-08-03T02:13:17.823Z,98.82
2018-08-03T02:14:18.012Z,99.11
2018-08-03T02:15:18.185Z,98.92
2018-08-03T02:16:18.377Z,99.11
2018-08-03T02:17:18.561Z,99.11
2018-08-03T02:18:18.747Z,99.79
2018-08-03T02:19:18.934Z,99.40
2018-08-03T02:20:19.145Z,98.82
2018-08-03T02:21:19.354Z,99.88
2018-08-03T02:22:19.495Z,99.21
2018-08-03T02:23:19.692Z,99.40
2018-08-03T02:24:19.874Z,99.59
2018-08-03T02:25:20.076Z,99.50
2018-08-03T02:26:20.271Z,99.50
2018-08-03T02:27:20.444Z,99.30
2018-08-03T02:28:20.627Z,99.79
2018-08-03T02:29:20.812Z,99.79
2018-08-03T02:30:21.000Z,99.99
2018-08-03T02:31:21.200Z,99.99
2018-08-03T02:32:21.365Z,99.98
2018-08-03T02:33:21.563Z,99.99
2018-08-03T02:34:21.751Z,99.99
2018-08-03T02:35:21.944Z,99.99
2018-08-03T02:36:22.140Z,99.99
2018-08-03T02:37:22.300Z,99.99
2018-08-03T02:38:22.473Z,99.99
2018-08-03T02:39:22.657Z,99.99
2018-08-03T02:40:22.857Z,99.99
2018-08-03T02:41:23.043Z,99.99
2018-08-03T02:42:23.228Z,99.99
2018-08-03T02:43:23.507Z,99.99
2018-08-03T02:44:23.616Z,99.99
2018-08-03T02:45:23.778Z,99.99
2018-08-03T02:46:23.951Z,99.99
2018-08-03T02:47:24.140Z,99.99
2018-08-03T02:48:24.328Z,99.99
2018-08-03T02:49:24.516Z,99.99
2018-08-03T02:50:24.707Z,99.99
2018-08-03T02:51:24.882Z,99.99
2018-08-03T02:52:25.068Z,99.99
2018-08-03T02:53:25.262Z,99.99
2018-08-03T02:54:25.444Z,99.99
2018-08-03T02:55:25.633Z,99.99
2018-08-03T02:56:25.831Z,99.99
2018-08-03T02:57:26.039Z,99.99
2018-08-03T02:58:26.228Z,99.99
2018-08-03T02:59:26.402Z,99.99
2018-08-03T03:00:26.591Z,99.99
2018-08-03T03:01:26.762Z,99.99
2018-08-03T03:02:26.957Z,99.99
2018-08-03T03:03:27.136Z,99.99
2018-08-03T03:04:27.328Z,99.99
2018-08-03T03:05:27.586Z,99.99
2018-08-03T03:06:27.779Z,99.99
2018-08-03T03:07:28.022Z,99.99
2018-08-03T03:08:28.142Z,99.99
2018-08-03T03:09:28.323Z,99.99
2018-08-03T03:10:28.502Z,99.99
2018-08-03T03:11:28.688Z,99.99
2018-08-03T03:12:28.873Z,99.99
2018-08-03T03:13:29.058Z,99.99
2018-08-03T03:14:29.236Z,99.99
2018-08-03T03:15:29.423Z,99.99
2018-08-03T03:16:29.633Z,99.99
2018-08-03T03:17:29.806Z,99.99
2018-08-03T03:18:29.991Z,99.99
2018-08-03T03:19:30.170Z,99.99
2018-08-03T03:20:30.410Z,99.99
2018-08-03T03:21:30.583Z,99.99
2018-08-03T03:22:30.773Z,99.99
2018-08-03T03:23:30.941Z,99.99
2018-08-03T03:24:31.127Z,99.99
2018-08-03T03:25:31.318Z,99.99
2018-08-03T03:26:31.496Z,99.99
2018-08-03T03:27:31.680Z,99.99
2018-08-03T03:28:31.864Z,99.99
2018-08-03T03:29:32.053Z,99.99
2018-08-03T03:30:32.227Z,99.99
2018-08-03T03:31:32.408Z,99.99
2018-08-03T03:32:32.587Z,99.99
2018-08-03T03:33:32.819Z,99.99
2018-08-03T03:34:32.958Z,99.99
2018-08-03T03:35:33.134Z,99.99
2018-08-03T03:36:33.312Z,99.99
2018-08-03T03:37:33.498Z,99.99
2018-08-03T03:38:33.680Z,99.99
2018-08-03T03:39:33.881Z,99.99
2018-08-03T03:40:34.072Z,99.99
2018-08-03T03:41:34.248Z,99.99
2018-08-03T03:44:17.142Z,99.99
2018-08-03T03:45:17.332Z,99.99
2018-08-03T03:46:17.521Z,99.99
2018-08-03T03:47:17.728Z,99.99
2018-08-03T03:48:17.916Z,99.99
2018-08-03T03:49:18.113Z,99.99
2018-08-03T03:50:18.310Z,99.99
2018-08-03T03:51:18.495Z,99.99
2018-08-03T03:52:18.680Z,99.99
2018-08-03T03:53:18.869Z,99.99
2018-08-03T03:54:19.053Z,99.99
2018-08-03T03:55:19.242Z,99.99
2018-08-03T03:56:19.440Z,99.99
2018-08-03T03:57:19.605Z,99.99
2018-08-03T03:58:19.754Z,99.99
2018-08-03T03:59:19.983Z,99.99
2018-08-03T04:00:20.131Z,99.99
2018-08-03T04:01:20.334Z,99.99
2018-08-03T04:02:20.503Z,99.99
2018-08-03T04:03:20.678Z,99.99
2018-08-03T04:04:20.874Z,99.99
2018-08-03T04:05:21.048Z,99.99
2018-08-03T04:06:21.228Z,99.99
2018-08-03T04:07:21.418Z,99.99
2018-08-03T04:08:21.592Z,99.99
2018-08-03T04:09:21.783Z,99.99
2018-08-03T04:10:21.967Z,99.99
2018-08-03T04:11:22.155Z,99.99
2018-08-03T04:12:22.373Z,99.99
2018-08-03T04:13:22.529Z,99.99
2018-08-03T04:14:22.701Z,99.99
2018-08-03T04:15:22.893Z,99.99
2018-08-03T04:16:23.085Z,99.99
2018-08-03T04:17:23.265Z,99.99
2018-08-03T04:18:23.446Z,99.99
2018-08-03T04:19:23.644Z,99.99
2018-08-03T04:20:23.837Z,99.99
2018-08-03T04:21:24.013Z,99.99
2018-08-03T04:22:24.210Z,99.99
2018-08-03T04:23:24.408Z,99.99
2018-08-03T04:24:24.573Z,99.99
2018-08-03T04:25:24.768Z,99.99
2018-08-03T04:26:24.942Z,99.99
2018-08-03T04:27:25.135Z,99.99
2018-08-03T04:28:25.315Z,99.99
2018-08-03T04:29:25.524Z,99.99
2018-08-03T04:30:25.689Z,99.99
2018-08-03T04:31:25.873Z,99.99
2018-08-03T04:32:26.051Z,99.99
2018-08-03T04:33:26.239Z,99.99
2018-08-03T04:34:26.431Z,99.99
2018-08-03T04:35:26.617Z,99.99
2018-08-03T04:36:26.807Z,99.99
2018-08-03T04:37:27.011Z,99.99
2018-08-03T04:38:27.203Z,99.99
2018-08-03T04:39:27.390Z,99.99
2018-08-03T04:40:27.561Z,99.99
2018-08-03T04:41:27.749Z,99.99
2018-08-03T04:42:27.966Z,99.99
2018-08-03T04:43:28.136Z,99.99
2018-08-03T04:44:28.317Z,99.99
2018-08-03T04:45:28.491Z,99.99
2018-08-03T04:46:28.678Z,99.99
2018-08-03T04:47:28.861Z,99.99
2018-08-03T04:48:29.041Z,99.99
2018-08-03T04:49:29.218Z,99.99
2018-08-03T04:50:29.419Z,99.99
2018-08-03T04:51:29.608Z,99.99
2018-08-03T04:52:29.780Z,99.99
2018-08-03T04:53:29.958Z,99.99
2018-08-03T04:54:30.146Z,99.99
2018-08-03T04:55:30.327Z,99.99
2018-08-03T04:56:30.499Z,99.99
2018-08-03T04:57:30.684Z,98.15
2018-08-03T04:58:30.856Z,96.84
2018-08-03T04:59:31.072Z,95.35
2018-08-03T05:00:31.257Z,94.67
2018-08-03T05:01:31.457Z,92.88
2018-08-03T05:02:31.645Z,92.16
2018-08-03T05:03:31.837Z,91.24
2018-08-03T05:04:32.019Z,90.07
2018-08-03T05:05:32.191Z,89.29
2018-08-03T05:06:32.377Z,89.25
2018-08-03T05:07:32.562Z,88.95
2018-08-03T05:08:32.757Z,89.15
2018-08-03T05:09:32.953Z,88.03
2018-08-03T05:10:33.127Z,87.30
2018-08-03T05:11:33.329Z,86.82
2018-08-03T05:12:33.517Z,85.21
2018-08-03T05:13:33.734Z,84.86
2018-08-03T05:14:33.917Z,83.99
2018-08-03T05:15:34.162Z,83.45
2018-08-03T05:16:34.335Z,83.45
2018-08-03T05:17:34.472Z,82.32
2018-08-03T05:18:34.677Z,82.23
2018-08-03T05:19:34.876Z,81.93
2018-08-03T05:20:35.076Z,81.39
2018-08-03T05:21:35.245Z,80.81
2018-08-03T05:22:35.442Z,80.62
2018-08-03T05:23:35.637Z,80.07
2018-08-03T05:24:35.820Z,79.59
2018-08-03T05:25:36.012Z,79.00
2018-08-03T05:26:36.215Z,79.00
2018-08-03T05:27:36.422Z,80.19
2018-08-03T05:28:36.609Z,81.55
2018-08-03T05:29:36.797Z,81.65
2018-08-03T05:30:37.022Z,81.55
2018-08-03T05:31:37.176Z,81.26
2018-08-03T05:32:37.358Z,81.49
2018-08-03T05:33:37.568Z,80.71
2018-08-03T05:34:37.754Z,80.42
2018-08-03T05:35:38.017Z,79.68
2018-08-03T05:36:38.211Z,79.00
2018-08-03T05:37:38.411Z,79.30
2018-08-03T05:38:38.633Z,79.39
2018-08-03T05:39:38.795Z,78.23
2018-08-03T05:40:38.994Z,78.17
2018-08-03T05:41:39.187Z,77.87
2018-08-03T05:42:39.442Z,78.56
2018-08-03T05:43:39.601Z,78.33
2018-08-03T05:44:39.805Z,78.17
2018-08-03T05:45:39.987Z,77.97
2018-08-03T05:46:40.210Z,77.78
2018-08-03T05:47:40.408Z,77.82
2018-08-03T05:48:40.608Z,76.55
2018-08-03T05:49:40.812Z,77.20
2018-08-03T05:50:41.019Z,77.35
2018-08-03T05:51:41.208Z,78.33
2018-08-03T05:52:41.408Z,79.16
2018-08-03T05:53:41.649Z,79.30
2018-08-03T05:54:41.861Z,78.91
2018-08-03T05:55:42.050Z,79.00
2018-08-03T05:56:42.264Z,78.23
2018-08-03T05:57:42.469Z,79.10
2018-08-03T05:58:42.687Z,78.71
2018-08-03T05:59:42.891Z,78.13
2018-08-03T06:00:43.081Z,78.13
2018-08-03T06:01:43.290Z,77.78
2018-08-03T06:02:43.481Z,77.39
2018-08-03T06:03:43.682Z,76.55
2018-08-03T06:04:43.868Z,76.65
2018-08-03T06:05:44.062Z,76.35
2018-08-03T06:06:44.248Z,75.71
2018-08-03T06:07:44.454Z,75.03
2018-08-03T06:08:44.670Z,74.32
2018-08-03T06:09:44.922Z,74.65
2018-08-03T06:10:45.067Z,74.74
2018-08-03T06:11:45.260Z,74.45
2018-08-03T06:12:45.451Z,74.58
2018-08-03T06:13:45.637Z,73.74
2018-08-03T06:14:45.836Z,73.45
2018-08-03T06:15:46.032Z,72.64
2018-08-03T06:16:46.253Z,73.74
2018-08-03T06:17:46.437Z,72.77
2018-08-03T06:18:46.638Z,72.61
2018-08-03T06:19:46.828Z,72.09
2018-08-03T06:20:47.149Z,72.51
2018-08-03T06:21:47.241Z,70.86
2018-08-03T06:22:47.438Z,71.15
2018-08-03T06:23:47.645Z,71.21
2018-08-03T06:24:47.852Z,72.47
2018-08-03T06:25:48.027Z,71.44
2018-08-03T06:26:48.244Z,71.60
2018-08-03T06:27:48.442Z,72.09
2018-08-03T06:28:48.615Z,72.64
2018-08-03T06:29:48.899Z,73.80
2018-08-03T06:30:49.019Z,73.22
2018-08-03T06:31:49.224Z,72.83
2018-08-03T06:32:49.420Z,72.67
2018-08-03T06:33:49.615Z,72.57
2018-08-03T06:34:49.807Z,72.71
2018-08-03T06:35:49.995Z,70.56
2018-08-03T06:36:50.190Z,71.99
2018-08-03T06:37:50.396Z,71.80
2018-08-03T06:38:50.600Z,72.64
2018-08-03T06:39:50.798Z,72.64
2018-08-03T06:40:50.992Z,73.32
2018-08-03T06:41:51.180Z,72.92
2018-08-03T06:42:51.398Z,74.10
2018-08-03T06:43:51.583Z,74.19
2018-08-03T06:44:51.802Z,72.44
2018-08-03T06:45:51.989Z,72.44
2018-08-03T06:46:52.189Z,73.32
2018-08-03T06:47:52.378Z,73.32
2018-08-03T06:48:52.573Z,72.92
2018-08-03T06:49:52.793Z,72.77
2018-08-03T06:50:52.980Z,72.02
2018-08-03T06:51:53.179Z,71.08
2018-08-03T06:52:53.380Z,69.53
2018-08-03T06:53:53.650Z,70.01
2018-08-03T06:54:54.616Z,69.62
2018-08-03T06:55:53.977Z,69.26
2018-08-03T06:56:54.176Z,69.07
2018-08-03T06:57:54.383Z,69.23
2018-08-03T06:58:54.594Z,70.31
2018-08-03T06:59:54.803Z,70.70
2018-08-03T07:00:55.030Z,70.70
2018-08-03T07:01:55.220Z,70.37
2018-08-03T07:02:55.486Z,69.98
2018-08-03T07:03:55.603Z,70.95
2018-08-03T07:04:55.833Z,71.15
2018-08-03T07:05:55.999Z,69.82
2018-08-03T07:06:56.189Z,69.59
2018-08-03T07:07:56.386Z,70.60
2018-08-03T07:08:56.583Z,69.53
2018-08-03T07:09:56.782Z,70.56
2018-08-03T07:10:56.982Z,71.31
2018-08-03T07:11:57.177Z,72.25
2018-08-03T07:12:57.364Z,73.32
2018-08-03T07:13:57.567Z,73.61
2018-08-03T07:14:57.815Z,73.41
2018-08-03T07:15:57.942Z,72.47
2018-08-03T07:16:58.161Z,71.25
2018-08-03T07:17:58.337Z,71.60
2018-08-03T07:18:58.546Z,71.60
2018-08-03T07:19:58.764Z,71.44
2018-08-03T07:20:58.935Z,70.66
2018-08-03T07:21:59.136Z,69.65
2018-08-03T07:22:59.347Z,68.62
2018-08-03T07:23:59.524Z,67.41
2018-08-03T07:24:59.714Z,65.78
2018-08-03T07:26:00.008Z,65.63
2018-08-03T07:27:00.117Z,66.50
2018-08-03T07:28:00.324Z,67.19
2018-08-03T07:29:00.519Z,66.41
2018-08-03T07:30:00.729Z,66.96
2018-08-03T07:31:00.915Z,67.97
2018-08-03T07:32:01.124Z,66.83
2018-08-03T07:33:01.325Z,65.88
2018-08-03T07:34:01.510Z,64.39
2018-08-03T07:35:01.711Z,65.33
2018-08-03T07:36:01.924Z,66.50
2018-08-03T07:37:02.174Z,66.50
2018-08-03T07:38:02.305Z,66.80
2018-08-03T07:39:02.502Z,66.89
2018-08-03T07:40:02.794Z,65.26
2018-08-03T07:41:02.916Z,65.69
2018-08-03T07:42:03.128Z,65.66
2018-08-03T07:43:03.354Z,65.56
2018-08-03T07:44:03.532Z,64.42
2018-08-03T07:45:03.799Z,64.42
2018-08-03T07:46:03.921Z,63.47
2018-08-03T07:47:04.105Z,63.83
2018-08-03T07:48:04.339Z,62.79
2018-08-03T07:49:04.536Z,62.39
2018-08-03T07:50:04.731Z,63.28
2018-08-03T07:51:04.922Z,63.67
2018-08-03T07:52:05.122Z,62.82
2018-08-03T07:53:05.323Z,61.77
2018-08-03T07:54:05.562Z,61.93
2018-08-03T07:55:05.778Z,62.39
2018-08-03T07:56:05.970Z,63.70
2018-08-03T07:57:06.191Z,64.03
2018-08-03T07:58:06.347Z,64.29
2018-08-03T07:59:06.559Z,63.24
2018-08-03T08:00:06.764Z,64.03
2018-08-03T08:01:06.949Z,62.76
2018-08-03T08:02:07.159Z,62.39
2018-08-03T08:03:07.374Z,63.47
2018-08-03T08:04:07.551Z,62.52
2018-08-03T08:05:09.287Z,61.18
2018-08-03T08:06:07.882Z,61.35
2018-08-03T08:07:08.077Z,61.44
2018-08-03T08:08:08.277Z,61.90
2018-08-03T08:09:08.475Z,62.76
2018-08-03T08:10:08.665Z,62.36
2018-08-03T08:11:08.857Z,62.59
2018-08-03T08:12:09.064Z,62.39
2018-08-03T08:13:09.279Z,62.52
2018-08-03T08:14:09.481Z,61.38
2018-08-03T08:15:09.715Z,60.21
2018-08-03T08:16:09.877Z,60.46
2018-08-03T08:17:10.063Z,59.58
2018-08-03T08:18:10.259Z,60.39
2018-08-03T08:19:10.448Z,59.01
2018-08-03T08:20:10.645Z,58.06
2018-08-03T08:21:10.844Z,57.48
2018-08-03T08:22:11.042Z,57.87
2018-08-03T08:23:11.246Z,56.67
2018-08-03T08:24:11.446Z,57.81
2018-08-03T08:25:11.647Z,59.55
2018-08-03T08:26:11.874Z,58.86
2018-08-03T08:27:12.044Z,58.89
2018-08-03T08:28:12.246Z,58.27
2018-08-03T08:29:12.441Z,58.96
2018-08-03T08:30:12.628Z,59.38
2018-08-03T08:31:12.849Z,57.07
2018-08-03T08:32:13.070Z,58.05
2018-08-03T08:33:13.291Z,59.46
2018-08-03T08:34:13.480Z,59.63
2018-08-03T08:35:13.690Z,60.21
2018-08-03T08:36:13.851Z,60.18
2018-08-03T08:37:14.054Z,61.29
2018-08-03T08:38:14.261Z,59.46
2018-08-03T08:39:14.465Z,59.46
2018-08-03T08:40:14.661Z,59.49
2018-08-03T08:41:14.858Z,59.98
2018-08-03T08:42:15.049Z,58.83
2018-08-03T08:43:15.254Z,58.44
2018-08-03T08:44:15.451Z,58.34
2018-08-03T08:45:15.673Z,58.57
2018-08-03T08:46:15.861Z,57.39
2018-08-03T08:47:16.045Z,57.66
2018-08-03T08:48:16.272Z,57.26
2018-08-03T08:49:16.507Z,57.92
2018-08-03T08:50:16.681Z,59.00
2018-08-03T08:51:16.873Z,59.32
2018-08-03T08:52:17.064Z,57.59
2018-08-03T08:53:17.331Z,56.54
2018-08-03T08:54:17.457Z,57.49
2018-08-03T08:55:17.656Z,57.78
2018-08-03T08:56:17.852Z,56.15
2018-08-03T08:57:18.051Z,56.48
2018-08-03T08:58:18.257Z,57.36
2018-08-03T08:59:18.463Z,57.46
2018-08-03T09:00:18.649Z,57.66
2018-08-03T09:01:18.894Z,57.82
2018-08-03T09:02:19.058Z,57.76
2018-08-03T09:03:19.255Z,57.76
2018-08-03T09:04:19.468Z,57.76
2018-08-03T09:05:19.651Z,57.66
2018-08-03T09:06:19.856Z,57.73
2018-08-03T09:09:02.788Z,58.73
2018-08-03T09:10:02.977Z,58.22
2018-08-03T09:11:03.181Z,58.22
2018-08-03T09:12:03.377Z,58.22
2018-08-03T09:13:03.629Z,58.25
2018-08-03T09:14:03.775Z,57.68
2018-08-03T09:15:03.973Z,57.68
2018-08-03T09:16:04.180Z,57.00
2018-08-03T09:17:04.379Z,56.41
2018-08-03T09:18:04.598Z,56.71
2018-08-03T09:19:04.787Z,57.82
2018-08-03T09:20:04.991Z,58.38
2018-08-03T09:21:05.193Z,58.87
2018-08-03T09:22:05.396Z,59.17
2018-08-03T09:23:05.585Z,59.36
2018-08-03T09:24:05.781Z,59.17
2018-08-03T09:25:05.987Z,59.59
2018-08-03T09:26:06.194Z,59.42
2018-08-03T09:27:06.382Z,57.86
2018-08-03T09:28:06.592Z,57.39
2018-08-03T09:29:06.759Z,57.49
2018-08-03T09:30:06.968Z,56.44
2018-08-03T09:31:07.276Z,56.41
2018-08-03T09:32:07.337Z,56.24
2018-08-03T09:33:07.534Z,56.57
2018-08-03T09:34:07.729Z,56.63
2018-08-03T09:35:07.930Z,56.54
2018-08-03T09:36:08.132Z,56.44
2018-08-03T09:37:08.345Z,56.12
2018-08-03T09:38:08.519Z,60.85
2018-08-03T09:39:08.714Z,62.23
2018-08-03T09:40:08.900Z,72.17
2018-08-03T09:41:09.080Z,78.40
2018-08-03T09:42:09.280Z,72.71
2018-08-03T09:43:09.475Z,79.30
2018-08-03T09:44:09.646Z,76.02
2018-08-03T09:45:09.843Z,68.74
2018-08-03T09:46:10.031Z,76.08
2018-08-03T09:47:10.224Z,69.07
2018-08-03T09:48:10.419Z,75.14
2018-08-03T09:49:11.753Z,73.45
2018-08-03T09:50:10.799Z,76.24
2018-08-03T09:51:10.995Z,74.45
2018-08-03T09:52:11.193Z,76.98
2018-08-03T09:53:11.389Z,72.05
2018-08-03T09:54:11.581Z,73.61
2018-08-03T09:55:11.802Z,68.26
2018-08-03T09:56:11.996Z,66.79
2018-08-03T09:57:12.205Z,68.29
2018-08-03T09:58:12.361Z,68.06
2018-08-03T09:59:12.565Z,66.83
2018-08-03T10:00:12.755Z,66.44
2018-08-03T10:01:12.941Z,66.41
2018-08-03T10:02:13.145Z,68.35
2018-08-03T10:03:13.358Z,70.01
2018-08-03T10:04:13.569Z,66.76
2018-08-03T10:05:13.761Z,66.31
2018-08-03T10:06:13.958Z,68.16
2018-08-03T10:07:14.151Z,69.72
2018-08-03T10:08:14.324Z,68.26
2018-08-03T10:09:14.515Z,67.86
2018-08-03T10:10:14.710Z,68.35
2018-08-03T10:11:14.909Z,66.69
2018-08-03T10:12:15.106Z,68.06
2018-08-03T10:13:15.297Z,67.12
2018-08-03T10:14:15.488Z,67.74
2018-08-03T10:15:15.708Z,67.38
2018-08-03T10:16:15.860Z,64.81
2018-08-03T10:17:16.049Z,62.19
2018-08-03T10:18:16.241Z,62.23
2018-08-03T10:19:16.439Z,60.30
2018-08-03T10:20:16.634Z,59.81
2018-08-03T10:21:16.814Z,59.12
2018-08-03T10:22:17.079Z,58.25
2018-08-03T10:23:17.218Z,59.12
2018-08-03T10:24:17.416Z,58.83
2018-08-03T10:25:17.604Z,59.03
2018-08-03T10:26:17.806Z,59.09
2018-08-03T10:27:17.998Z,59.49
2018-08-03T10:28:18.183Z,59.66
2018-08-03T10:29:18.375Z,60.63
2018-08-03T10:30:18.560Z,59.92
2018-08-03T10:31:18.770Z,61.51
2018-08-03T10:32:18.949Z,61.32
2018-08-03T10:33:19.124Z,59.78
2018-08-03T10:34:19.319Z,59.19
2018-08-03T10:35:19.507Z,58.90
2018-08-03T10:36:19.694Z,59.49
2018-08-03T10:37:19.886Z,59.03
2018-08-03T10:38:20.127Z,58.47
2018-08-03T10:39:20.259Z,57.52
2018-08-03T10:40:20.465Z,56.37
2018-08-03T10:41:20.656Z,57.84
2018-08-03T10:42:20.859Z,56.17
2018-08-03T10:43:21.044Z,56.27
2018-08-03T10:44:21.243Z,56.34
2018-08-03T10:45:21.426Z,57.00
2018-08-03T10:46:21.608Z,57.20
2018-08-03T10:47:21.804Z,56.31
2018-08-03T10:48:22.007Z,56.41
2018-08-03T10:49:22.192Z,57.46
2018-08-03T10:50:22.378Z,57.53
2018-08-03T10:51:22.618Z,58.41
2018-08-03T10:52:22.774Z,57.01
2018-08-03T10:53:22.967Z,57.70
2018-08-03T10:54:23.149Z,57.53
2018-08-03T10:57:08.535Z,57.07
2018-08-03T10:58:06.236Z,57.56
2018-08-03T10:59:06.435Z,57.14
2018-08-03T11:00:06.627Z,56.38
2018-08-03T11:01:06.813Z,57.26
2018-08-03T11:02:07.012Z,56.38
2018-08-03T11:03:07.222Z,56.48
2018-08-03T11:04:07.400Z,57.34
2018-08-03T11:05:07.600Z,57.70
2018-08-03T11:06:07.773Z,58.22
2018-08-03T11:07:08.001Z,58.68
2018-08-03T11:08:08.151Z,58.02
2018-08-03T11:09:08.347Z,57.73
2018-08-03T11:10:08.538Z,57.46
2018-08-03T11:11:08.722Z,57.86
2018-08-03T11:12:08.925Z,57.59
2018-08-03T11:13:09.148Z,55.63
2018-08-03T11:14:09.333Z,54.87
2018-08-03T11:15:09.516Z,55.07
2018-08-03T11:16:09.704Z,54.77
2018-08-03T11:17:09.889Z,53.89
2018-08-03T11:18:10.073Z,54.36
2018-08-03T11:19:10.292Z,54.87
2018-08-03T11:20:10.494Z,54.68
2018-08-03T11:21:10.669Z,54.77
2018-08-03T11:22:10.871Z,54.97
2018-08-03T11:23:11.065Z,53.80
2018-08-03T11:24:11.293Z,49.02
2018-08-03T11:25:11.455Z,48.85
2018-08-03T11:26:11.647Z,47.37
2018-08-03T11:27:11.843Z,43.72
2018-08-03T11:28:12.039Z,47.84
2018-08-03T11:29:12.247Z,49.87
2018-08-03T11:30:12.452Z,48.80
2018-08-03T11:31:12.634Z,49.31
2018-08-03T11:32:12.845Z,50.39
2018-08-03T11:33:13.334Z,49.99
2018-08-03T11:34:13.170Z,50.78
2018-08-03T11:35:13.403Z,51.66
2018-08-03T11:36:13.544Z,50.71
2018-08-03T11:37:13.793Z,50.90
2018-08-03T11:38:13.943Z,51.69
2018-08-03T11:39:14.143Z,52.28
2018-08-03T11:40:14.326Z,52.84
2018-08-03T11:41:14.540Z,51.69
2018-08-03T11:42:14.736Z,51.59
2018-08-03T11:43:14.953Z,51.62
2018-08-03T11:44:15.149Z,51.12
2018-08-03T11:45:15.323Z,50.02
2018-08-03T11:46:15.517Z,51.49
2018-08-03T11:47:15.719Z,51.59
2018-08-03T11:48:15.927Z,51.22
2018-08-03T11:49:16.110Z,51.12
2018-08-03T11:50:16.307Z,51.12
2018-08-03T11:51:16.498Z,51.59
2018-08-03T11:52:16.693Z,51.49
2018-08-03T11:53:16.888Z,51.69
2018-08-03T11:54:17.076Z,51.20
2018-08-03T11:55:17.267Z,51.49
2018-08-03T11:56:17.458Z,51.39
2018-08-03T11:57:17.662Z,51.32
2018-08-03T11:58:17.895Z,51.42
2018-08-03T11:59:18.080Z,50.63
2018-08-03T12:00:18.293Z,50.93
2018-08-03T12:01:18.487Z,49.97
2018-08-03T12:02:18.674Z,49.55
2018-08-03T12:03:18.857Z,50.14
2018-08-03T12:04:19.072Z,50.04
2018-08-03T12:05:19.249Z,49.73
2018-08-03T12:06:19.453Z,50.22
2018-08-03T12:07:19.647Z,51.12
2018-08-03T12:08:19.855Z,50.14
2018-08-03T12:09:20.028Z,49.97
2018-08-03T12:10:20.239Z,49.58
2018-08-03T12:11:20.430Z,49.58
2018-08-03T12:12:20.648Z,49.58
2018-08-03T12:13:20.855Z,49.77
2018-08-03T12:14:21.021Z,49.70
2018-08-03T12:15:21.213Z,47.81
2018-08-03T12:16:21.403Z,48.79
2018-08-03T12:17:21.612Z,48.21
2018-08-03T12:18:21.805Z,47.89
2018-08-03T12:19:22.001Z,48.77
2018-08-03T12:20:22.185Z,47.69
2018-08-03T12:21:22.380Z,48.65
2018-08-03T12:22:22.568Z,48.65
2018-08-03T12:23:22.771Z,49.33
2018-08-03T12:24:22.956Z,48.35
2018-08-03T12:25:23.139Z,48.94
2018-08-03T12:26:23.355Z,47.99
2018-08-03T12:27:23.535Z,47.17
2018-08-03T12:28:23.747Z,47.27
2018-08-03T12:29:23.967Z,47.57
2018-08-03T12:30:24.158Z,47.27
2018-08-03T12:31:24.453Z,47.96
2018-08-03T12:32:24.531Z,45.51
2018-08-03T12:33:24.824Z,46.02
2018-08-03T12:34:24.868Z,45.43
2018-08-03T12:35:25.052Z,45.83
2018-08-03T12:36:25.233Z,45.53
2018-08-03T12:39:08.152Z,46.02
2018-08-03T12:40:08.341Z,46.04
2018-08-03T12:41:08.524Z,47.03
2018-08-03T12:42:09.548Z,45.18
2018-08-03T12:43:08.908Z,44.57
2018-08-03T12:44:09.102Z,45.75
2018-08-03T12:45:09.331Z,45.55
2018-08-03T12:46:09.554Z,45.73
2018-08-03T12:47:09.746Z,45.43
2018-08-03T12:48:09.990Z,46.71
2018-08-03T12:49:10.178Z,46.24
2018-08-03T12:50:10.362Z,45.55
2018-08-03T12:52:53.314Z,46.38
2018-08-03T12:53:53.491Z,45.18
2018-08-03T12:54:53.682Z,45.20
2018-08-03T12:55:53.883Z,44.32
2018-08-03T12:56:54.090Z,45.40
2018-08-03T12:57:54.281Z,45.09
2018-08-03T12:58:54.486Z,44.96
2018-08-03T12:59:54.677Z,44.59
2018-08-03T13:00:54.856Z,45.18
2018-08-03T13:01:55.082Z,45.28
2018-08-03T13:02:55.234Z,44.81
2018-08-03T13:03:55.446Z,44.52
2018-08-03T13:04:55.609Z,43.73
2018-08-03T13:05:55.792Z,44.34
2018-08-03T13:06:55.977Z,43.75
2018-08-03T13:07:56.393Z,43.63
2018-08-03T13:08:56.372Z,44.79